createdAt,value
2022-10-18T03:53:16.269Z,8.68
2022-10-18T03:56:18.569Z,8.60
2022-10-18T03:59:20.601Z,8.61
2022-10-18T04:02:23.049Z,8.78
2022-10-18T04:05:27.808Z,8.84
2022-10-18T04:08:30.446Z,8.74
2022-10-18T04:11:33.442Z,8.67
2022-10-18T04:14:35.598Z,8.61
2022-10-18T04:17:37.905Z,8.48
2022-10-18T04:20:39.941Z,8.49
2022-10-18T04:23:42.539Z,8.43
2022-10-18T04:26:44.597Z,8.32
2022-10-18T04:29:46.888Z,8.26
2022-10-18T04:32:48.918Z,8.31
2022-10-18T04:35:52.858Z,8.21
2022-10-18T04:38:54.993Z,8.23
2022-10-18T04:41:57.306Z,8.27
2022-10-18T04:44:59.338Z,8.25
2022-10-18T04:48:01.684Z,8.24
2022-10-18T04:51:03.846Z,8.39
2022-10-18T04:54:06.592Z,8.22
2022-10-18T04:57:08.640Z,8.20
2022-10-18T05:00:11.519Z,8.14
2022-10-18T05:03:14.547Z,8.22
2022-10-18T05:06:16.846Z,8.33
2022-10-18T05:09:18.932Z,8.25
2022-10-18T05:12:22.229Z,8.28
2022-10-18T05:15:24.422Z,8.17
2022-10-18T05:18:26.897Z,8.11
2022-10-18T05:21:28.970Z,8.10
2022-10-18T05:24:31.320Z,8.02
2022-10-18T05:27:33.387Z,8.14
2022-10-18T05:30:39.440Z,8.13
2022-10-18T05:33:41.469Z,8.37
2022-10-18T05:36:43.885Z,8.15
2022-10-18T05:39:45.921Z,8.04
2022-10-18T05:42:51.728Z,8.01
2022-10-18T05:45:53.793Z,7.96
2022-10-18T05:48:56.148Z,8.10
2022-10-18T05:51:58.166Z,8.21
2022-10-18T05:55:00.515Z,8.22
2022-10-18T05:58:04.036Z,8.28
2022-10-18T06:01:07.046Z,8.21
2022-10-18T06:04:10.312Z,8.37
2022-10-18T06:07:12.931Z,8.41
2022-10-18T06:10:15.360Z,8.48
2022-10-18T06:13:17.379Z,8.56
2022-10-18T06:16:22.027Z,8.61
2022-10-18T06:19:24.113Z,8.65
2022-10-18T06:22:26.456Z,8.88
2022-10-18T06:25:28.477Z,8.96
2022-10-18T06:28:31.303Z,9.06
2022-10-18T06:31:33.435Z,9.20
2022-10-18T06:34:35.808Z,9.24
2022-10-18T06:37:38.222Z,9.34
2022-10-18T06:40:40.566Z,9.46
2022-10-18T06:43:43.728Z,9.60
2022-10-18T06:46:47.184Z,9.80
2022-10-18T06:49:49.213Z,9.92
2022-10-18T06:52:54.372Z,10.17
2022-10-18T06:56:08.217Z,10.49
2022-10-18T06:59:10.550Z,10.76
2022-10-18T07:02:16.133Z,10.97
2022-10-18T07:05:18.724Z,11.22
2022-10-18T07:08:20.758Z,11.63
2022-10-18T07:11:26.158Z,11.84
2022-10-18T07:14:29.262Z,11.98
2022-10-18T07:17:32.006Z,12.14
2022-10-18T07:20:34.129Z,12.32
2022-10-18T07:23:38.490Z,12.50
2022-10-18T07:26:42.344Z,12.70
2022-10-18T07:29:44.650Z,12.78
2022-10-18T07:32:46.722Z,12.80
2022-10-18T07:35:49.048Z,12.87
2022-10-18T07:38:54.388Z,12.96
2022-10-18T07:41:57.519Z,13.12
2022-10-18T07:44:59.536Z,13.20
2022-10-18T07:48:01.866Z,13.30
2022-10-18T07:51:04.776Z,13.35
2022-10-18T07:54:07.068Z,13.46
2022-10-18T07:57:09.093Z,13.61
2022-10-18T08:00:11.863Z,13.72
2022-10-18T08:03:13.790Z,13.79
2022-10-18T08:06:18.744Z,13.83
2022-10-18T08:09:20.870Z,13.85
2022-10-18T08:12:23.186Z,13.91
2022-10-18T08:15:25.649Z,13.95
2022-10-18T08:19:52.884Z,14.71
2022-10-18T08:23:05.916Z,14.71
2022-10-18T08:26:13.545Z,14.29
2022-10-18T08:29:26.840Z,14.35
2022-10-18T08:32:31.630Z,14.63
2022-10-18T08:35:34.167Z,14.77
2022-10-18T08:38:47.472Z,14.94
2022-10-18T08:41:55.933Z,14.93
2022-10-18T08:44:58.172Z,14.95
2022-10-18T08:48:01.470Z,14.91
2022-10-18T08:51:09.970Z,14.93
2022-10-18T08:54:16.984Z,14.98
2022-10-18T08:57:20.135Z,15.03
2022-10-18T09:00:25.449Z,15.22
2022-10-18T09:03:49.457Z,15.25
2022-10-18T09:07:10.043Z,15.29
2022-10-18T09:10:46.394Z,15.41
2022-10-18T09:14:24.558Z,15.53
2022-10-18T09:17:50.267Z,15.67
2022-10-18T09:20:59.664Z,15.71
2022-10-18T09:24:12.525Z,15.88
2022-10-18T09:27:17.584Z,15.98
2022-10-18T09:30:40.815Z,15.99
2022-10-18T09:33:54.481Z,16.11
2022-10-18T09:36:57.148Z,16.17
2022-10-18T09:40:23.142Z,16.26
2022-10-18T09:43:48.713Z,16.30
2022-10-18T09:46:57.711Z,16.43
2022-10-18T09:50:06.199Z,16.54
2022-10-18T09:53:17.054Z,16.58
2022-10-18T09:56:23.852Z,16.63
2022-10-18T09:59:49.386Z,16.79
2022-10-18T10:02:51.471Z,16.94
2022-10-18T10:06:17.455Z,16.96
2022-10-18T10:09:26.625Z,17.06
2022-10-18T10:12:37.812Z,17.22
2022-10-18T10:15:42.567Z,17.41
2022-10-18T10:18:53.746Z,17.38
2022-10-18T10:22:12.210Z,17.42
2022-10-18T10:25:31.384Z,17.47
2022-10-18T10:28:43.625Z,17.46
2022-10-18T10:31:46.067Z,17.44
2022-10-18T10:34:48.661Z,17.53
2022-10-18T10:37:53.323Z,17.56
2022-10-18T10:40:56.067Z,17.60
2022-10-18T10:43:59.252Z,17.68
2022-10-18T10:47:01.633Z,17.78
2022-10-18T10:50:12.252Z,17.83
2022-10-18T10:53:36.809Z,17.79
2022-10-18T10:57:01.986Z,17.81
2022-10-18T11:00:04.472Z,17.88
2022-10-18T11:03:30.979Z,17.89
2022-10-18T11:06:43.334Z,17.92
2022-10-18T11:09:50.470Z,18.11
2022-10-18T11:13:05.138Z,18.14
2022-10-18T11:16:16.493Z,18.18
2022-10-18T11:19:40.507Z,18.26
2022-10-18T11:23:02.366Z,18.24
2022-10-18T11:26:07.395Z,18.34
2022-10-18T11:29:27.805Z,18.44
2022-10-18T11:33:06.682Z,18.38
2022-10-18T11:36:36.974Z,18.52
2022-10-18T11:39:51.179Z,18.50
2022-10-18T11:43:15.979Z,18.49
2022-10-18T11:46:43.716Z,18.42
2022-10-18T11:50:07.977Z,18.50
2022-10-18T11:53:09.905Z,18.50
2022-10-18T11:56:51.276Z,18.49
2022-10-18T12:03:44.929Z,18.79
2022-10-18T12:06:50.777Z,18.89
2022-10-18T12:09:55.155Z,18.96
2022-10-18T12:13:02.119Z,18.96
2022-10-18T12:16:06.830Z,18.92
2022-10-18T12:19:25.323Z,18.86
2022-10-18T12:22:38.364Z,18.75
2022-10-18T12:25:46.520Z,18.76
2022-10-18T12:29:20.287Z,18.81
2022-10-18T12:32:29.300Z,18.87
2022-10-18T12:35:46.467Z,18.85
2022-10-18T12:38:58.028Z,18.96
2022-10-18T12:42:00.763Z,19.06
2022-10-18T12:45:14.889Z,19.12
2022-10-18T12:48:32.178Z,19.10
2022-10-18T12:51:34.563Z,18.96
2022-10-18T12:54:39.484Z,18.99
2022-10-18T12:57:54.913Z,18.97
2022-10-18T13:01:07.286Z,19.02
2022-10-18T13:04:29.757Z,18.97
2022-10-18T13:07:40.750Z,18.93
2022-10-18T13:10:44.389Z,18.96
2022-10-18T13:13:52.566Z,19.13
2022-10-18T13:17:12.410Z,19.17
2022-10-18T13:20:40.625Z,19.14
2022-10-18T13:24:12.180Z,19.05
2022-10-18T13:27:38.211Z,18.99
2022-10-18T13:30:46.410Z,18.96
2022-10-18T13:33:49.384Z,18.92
2022-10-18T13:37:03.653Z,19.06
2022-10-18T13:40:23.999Z,19.11
2022-10-18T13:44:04.613Z,19.17
2022-10-18T13:47:06.951Z,19.03
2022-10-18T13:50:29.838Z,19.12
2022-10-18T13:53:48.562Z,19.08
2022-10-18T13:57:11.653Z,18.98
2022-10-18T14:00:49.206Z,18.90
2022-10-18T14:04:14.702Z,18.89
2022-10-18T14:07:19.108Z,18.84
2022-10-18T14:10:50.252Z,18.77
2022-10-18T14:14:02.781Z,18.79
2022-10-18T14:17:15.420Z,18.71
2022-10-18T14:20:30.173Z,18.60
2022-10-18T14:23:36.551Z,18.56
2022-10-18T14:29:41.941Z,18.49
2022-10-18T14:32:49.870Z,18.44
2022-10-18T14:36:02.666Z,18.38
2022-10-18T14:39:06.685Z,18.35
2022-10-18T14:42:20.246Z,18.30
2022-10-18T14:45:23.805Z,18.25
2022-10-18T14:48:26.098Z,18.18
2022-10-18T14:51:32.645Z,18.09
2022-10-18T14:54:37.713Z,18.02
2022-10-18T14:57:39.861Z,17.99
2022-10-18T15:00:43.966Z,17.94
2022-10-18T15:03:50.106Z,17.85
2022-10-18T15:06:52.408Z,17.80
2022-10-18T15:09:57.686Z,17.74
2022-10-18T15:13:09.797Z,17.70
2022-10-18T15:16:19.605Z,17.61
2022-10-18T15:19:21.816Z,17.51
2022-10-18T15:22:33.379Z,17.40
2022-10-18T15:25:35.928Z,17.29
2022-10-18T15:28:52.047Z,17.23
2022-10-18T15:31:54.849Z,17.13
2022-10-18T15:35:17.970Z,17.05
2022-10-18T15:38:27.811Z,16.92
2022-10-18T15:41:48.971Z,16.80
